sensor_id;sensor_type;location;lat;lon;timestamp;pressure;altitude;pressure_sealevel;temperature;humidity
20077;BME280;12348;42.710;23.378;2024-01-06T00:02:01;94975.72;;;4.29;100.00
20077;BME280;12348;42.710;23.378;2024-01-06T00:04:28;94969.25;;;4.20;100.00
20077;BME280;12348;42.710;23.378;2024-01-06T00:06:55;94970.63;;;4.22;100.00
20077;BME280;12348;42.710;23.378;2024-01-06T00:09:22;94976.88;;;4.38;100.00
20077;BME280;12348;42.710;23.378;2024-01-06T00:11:48;94957.75;;;4.46;100.00
20077;BME280;12348;42.710;23.378;2024-01-06T00:14:15;94945.25;;;4.52;100.00
20077;BME280;12348;42.710;23.378;2024-01-06T00:16:43;94944.91;;;4.43;100.00
20077;BME280;12348;42.710;23.378;2024-01-06T00:19:10;94942.03;;;4.45;100.00
20077;BME280;12348;42.710;23.378;2024-01-06T00:21:37;94957.06;;;4.29;100.00
20077;BME280;12348;42.710;23.378;2024-01-06T00:24:04;94981.34;;;4.00;100.00
20077;BME280;12348;42.710;23.378;2024-01-06T00:26:31;94997.50;;;3.94;100.00
20077;BME280;12348;42.710;23.378;2024-01-06T00:28:58;94986.91;;;3.72;100.00
20077;BME280;12348;42.710;23.378;2024-01-06T00:31:25;94965.25;;;3.63;100.00
20077;BME280;12348;42.710;23.378;2024-01-06T00:33:53;94971.06;;;3.60;100.00
20077;BME280;12348;42.710;23.378;2024-01-06T00:36:20;94966.50;;;3.55;100.00
20077;BME280;12348;42.710;23.378;2024-01-06T00:38:46;94967.13;;;3.40;100.00
20077;BME280;12348;42.710;23.378;2024-01-06T00:41:13;94986.19;;;3.32;100.00
20077;BME280;12348;42.710;23.378;2024-01-06T00:43:40;94975.53;;;3.32;100.00
20077;BME280;12348;42.710;23.378;2024-01-06T00:46:07;94979.25;;;3.31;100.00
20077;BME280;12348;42.710;23.378;2024-01-06T00:48:34;94968.72;;;3.20;100.00
20077;BME280;12348;42.710;23.378;2024-01-06T00:51:02;94972.31;;;3.30;100.00
20077;BME280;12348;42.710;23.378;2024-01-06T00:53:29;94956.53;;;3.24;100.00
20077;BME280;12348;42.710;23.378;2024-01-06T00:55:56;94961.00;;;3.18;100.00
20077;BME280;12348;42.710;23.378;2024-01-06T00:58:22;94944.59;;;3.26;100.00
20077;BME280;12348;42.710;23.378;2024-01-06T01:00:49;94963.59;;;3.35;100.00
20077;BME280;12348;42.710;23.378;2024-01-06T01:05:45;94974.31;;;3.18;100.00
20077;BME280;12348;42.710;23.378;2024-01-06T01:08:13;94969.78;;;3.19;100.00
20077;BME280;12348;42.710;23.378;2024-01-06T01:10:39;94971.38;;;3.20;100.00
20077;BME280;12348;42.710;23.378;2024-01-06T01:13:06;94963.66;;;3.18;100.00
20077;BME280;12348;42.710;23.378;2024-01-06T01:15:33;94954.94;;;3.23;100.00
20077;BME280;12348;42.710;23.378;2024-01-06T01:18:00;94946.69;;;3.24;100.00
20077;BME280;12348;42.710;23.378;2024-01-06T01:20:26;94947.69;;;3.18;100.00
20077;BME280;12348;42.710;23.378;2024-01-06T01:22:53;94948.31;;;3.25;100.00
20077;BME280;12348;42.710;23.378;2024-01-06T01:25:22;94952.81;;;3.25;100.00
20077;BME280;12348;42.710;23.378;2024-01-06T01:27:49;94950.53;;;3.33;100.00
20077;BME280;12348;42.710;23.378;2024-01-06T01:30:15;94964.97;;;3.37;100.00
20077;BME280;12348;42.710;23.378;2024-01-06T01:32:42;94956.16;;;3.37;100.00
20077;BME280;12348;42.710;23.378;2024-01-06T01:35:09;94949.22;;;3.36;100.00
20077;BME280;12348;42.710;23.378;2024-01-06T01:37:36;94948.41;;;3.35;100.00
20077;BME280;12348;42.710;23.378;2024-01-06T01:40:03;94941.94;;;3.48;100.00
20077;BME280;12348;42.710;23.378;2024-01-06T01:42:32;94925.34;;;3.41;100.00
20077;BME280;12348;42.710;23.378;2024-01-06T01:44:59;94928.47;;;3.60;100.00
20077;BME280;12348;42.710;23.378;2024-01-06T01:47:26;94934.78;;;3.81;100.00
20077;BME280;12348;42.710;23.378;2024-01-06T01:49:54;94924.44;;;3.84;100.00
20077;BME280;12348;42.710;23.378;2024-01-06T01:52:21;94932.13;;;3.81;100.00
20077;BME280;12348;42.710;23.378;2024-01-06T01:54:48;94916.56;;;3.68;100.00
20077;BME280;12348;42.710;23.378;2024-01-06T01:57:16;94925.41;;;3.73;100.00
20077;BME280;12348;42.710;23.378;2024-01-06T01:59:44;94922.84;;;3.56;100.00
20077;BME280;12348;42.710;23.378;2024-01-06T02:02:11;94916.88;;;3.44;100.00
20077;BME280;12348;42.710;23.378;2024-01-06T02:04:38;94913.31;;;3.60;100.00
20077;BME280;12348;42.710;23.378;2024-01-06T02:07:05;94918.13;;;3.91;100.00
20077;BME280;12348;42.710;23.378;2024-01-06T02:09:32;94920.69;;;4.12;100.00
20077;BME280;12348;42.710;23.378;2024-01-06T02:11:58;94915.97;;;4.20;100.00
20077;BME280;12348;42.710;23.378;2024-01-06T02:14:25;94903.44;;;4.20;100.00
20077;BME280;12348;42.710;23.378;2024-01-06T02:16:53;94894.97;;;4.28;100.00
20077;BME280;12348;42.710;23.378;2024-01-06T02:19:20;94886.97;;;4.28;100.00
20077;BME280;12348;42.710;23.378;2024-01-06T02:21:51;94878.69;;;4.25;100.00
20077;BME280;12348;42.710;23.378;2024-01-06T02:24:18;94873.66;;;4.28;100.00
20077;BME280;12348;42.710;23.378;2024-01-06T02:26:45;94870.19;;;4.28;100.00
20077;BME280;12348;42.710;23.378;2024-01-06T02:29:11;94874.41;;;4.19;100.00
20077;BME280;12348;42.710;23.378;2024-01-06T02:31:38;94869.53;;;4.10;100.00
20077;BME280;12348;42.710;23.378;2024-01-06T02:34:05;94869.69;;;3.99;100.00
20077;BME280;12348;42.710;23.378;2024-01-06T02:36:32;94867.72;;;3.84;100.00
20077;BME280;12348;42.710;23.378;2024-01-06T02:39:00;94869.47;;;3.73;100.00
20077;BME280;12348;42.710;23.378;2024-01-06T02:41:27;94865.13;;;3.62;100.00
20077;BME280;12348;42.710;23.378;2024-01-06T02:43:54;94865.38;;;3.60;100.00
20077;BME280;12348;42.710;23.378;2024-01-06T02:46:21;94863.00;;;3.59;100.00
20077;BME280;12348;42.710;23.378;2024-01-06T02:48:48;94856.47;;;3.45;100.00
20077;BME280;12348;42.710;23.378;2024-01-06T02:51:14;94860.25;;;3.27;100.00
20077;BME280;12348;42.710;23.378;2024-01-06T02:53:41;94868.94;;;3.17;100.00
20077;BME280;12348;42.710;23.378;2024-01-06T02:56:11;94861.47;;;3.14;100.00
20077;BME280;12348;42.710;23.378;2024-01-06T02:58:37;94862.31;;;3.20;100.00
20077;BME280;12348;42.710;23.378;2024-01-06T03:01:04;94857.97;;;3.13;100.00
20077;BME280;12348;42.710;23.378;2024-01-06T03:03:31;94836.22;;;2.95;100.00
20077;BME280;12348;42.710;23.378;2024-01-06T03:05:57;94836.44;;;2.88;100.00
20077;BME280;12348;42.710;23.378;2024-01-06T03:08:24;94839.94;;;2.94;100.00
20077;BME280;12348;42.710;23.378;2024-01-06T03:10:52;94838.09;;;2.94;100.00
20077;BME280;12348;42.710;23.378;2024-01-06T03:13:20;94837.06;;;2.95;100.00
20077;BME280;12348;42.710;23.378;2024-01-06T03:15:46;94831.22;;;2.98;100.00
20077;BME280;12348;42.710;23.378;2024-01-06T03:18:13;94836.66;;;3.08;100.00
20077;BME280;12348;42.710;23.378;2024-01-06T03:20:40;94839.88;;;3.37;100.00
20077;BME280;12348;42.710;23.378;2024-01-06T03:23:07;94835.88;;;3.35;100.00
20077;BME280;12348;42.710;23.378;2024-01-06T03:25:33;94828.44;;;3.37;100.00
20077;BME280;12348;42.710;23.378;2024-01-06T03:28:00;94829.09;;;3.49;100.00
20077;BME280;12348;42.710;23.378;2024-01-06T03:30:28;94823.06;;;3.32;100.00
20077;BME280;12348;42.710;23.378;2024-01-06T03:32:55;94838.75;;;3.60;100.00
20077;BME280;12348;42.710;23.378;2024-01-06T03:35:22;94822.03;;;3.97;100.00
20077;BME280;12348;42.710;23.378;2024-01-06T03:37:49;94827.66;;;4.01;100.00
20077;BME280;12348;42.710;23.378;2024-01-06T03:40:15;94826.84;;;4.00;100.00
20077;BME280;12348;42.710;23.378;2024-01-06T03:42:42;94822.72;;;4.25;100.00
20077;BME280;12348;42.710;23.378;2024-01-06T03:45:09;94833.34;;;4.15;100.00
20077;BME280;12348;42.710;23.378;2024-01-06T03:47:37;94829.81;;;4.51;100.00
20077;BME280;12348;42.710;23.378;2024-01-06T03:50:04;94831.47;;;4.62;100.00
20077;BME280;12348;42.710;23.378;2024-01-06T03:52:31;94836.03;;;4.67;100.00
20077;BME280;12348;42.710;23.378;2024-01-06T03:54:58;94838.00;;;4.92;100.00
20077;BME280;12348;42.710;23.378;2024-01-06T03:57:24;94833.19;;;4.89;100.00
20077;BME280;12348;42.710;23.378;2024-01-06T03:59:51;94825.97;;;4.84;100.00
20077;BME280;12348;42.710;23.378;2024-01-06T04:02:18;94820.84;;;4.68;100.00
20077;BME280;12348;42.710;23.378;2024-01-06T04:04:46;94819.44;;;4.55;100.00
20077;BME280;12348;42.710;23.378;2024-01-06T04:07:13;94821.28;;;4.49;100.00
20077;BME280;12348;42.710;23.378;2024-01-06T04:09:42;94831.81;;;4.29;100.00
20077;BME280;12348;42.710;23.378;2024-01-06T04:12:08;94829.06;;;4.13;100.00
20077;BME280;12348;42.710;23.378;2024-01-06T04:14:35;94830.53;;;3.94;100.00
20077;BME280;12348;42.710;23.378;2024-01-06T04:17:02;94826.44;;;3.81;100.00
20077;BME280;12348;42.710;23.378;2024-01-06T04:19:29;94830.78;;;3.60;100.00
20077;BME280;12348;42.710;23.378;2024-01-06T04:21:57;94823.59;;;3.61;100.00
20077;BME280;12348;42.710;23.378;2024-01-06T04:24:23;94831.25;;;3.52;100.00
20077;BME280;12348;42.710;23.378;2024-01-06T04:26:50;94823.13;;;3.37;100.00
20077;BME280;12348;42.710;23.378;2024-01-06T04:29:17;94826.13;;;3.19;100.00
20077;BME280;12348;42.710;23.378;2024-01-06T04:31:43;94831.81;;;3.05;100.00
20077;BME280;12348;42.710;23.378;2024-01-06T04:34:10;94843.19;;;2.96;100.00
20077;BME280;12348;42.710;23.378;2024-01-06T04:36:37;94841.84;;;2.98;100.00
20077;BME280;12348;42.710;23.378;2024-01-06T04:39:06;94850.22;;;2.85;100.00
20077;BME280;12348;42.710;23.378;2024-01-06T04:41:32;94847.75;;;2.78;100.00
20077;BME280;12348;42.710;23.378;2024-01-06T04:43:59;94854.28;;;3.14;100.00
20077;BME280;12348;42.710;23.378;2024-01-06T04:46:26;94850.47;;;2.83;100.00
20077;BME280;12348;42.710;23.378;2024-01-06T04:48:52;94847.13;;;2.93;100.00
20077;BME280;12348;42.710;23.378;2024-01-06T04:51:19;94836.13;;;3.06;100.00
20077;BME280;12348;42.710;23.378;2024-01-06T04:53:46;94849.28;;;2.96;100.00
20077;BME280;12348;42.710;23.378;2024-01-06T04:56:15;94834.13;;;2.97;100.00
20077;BME280;12348;42.710;23.378;2024-01-06T04:58:41;94846.31;;;2.92;100.00
20077;BME280;12348;42.710;23.378;2024-01-06T05:01:08;94840.81;;;2.99;100.00
20077;BME280;12348;42.710;23.378;2024-01-06T05:03:35;94850.34;;;2.95;100.00
20077;BME280;12348;42.710;23.378;2024-01-06T05:06:02;94837.28;;;2.94;100.00
20077;BME280;12348;42.710;23.378;2024-01-06T05:08:29;94832.69;;;2.84;100.00
20077;BME280;12348;42.710;23.378;2024-01-06T05:10:56;94848.50;;;2.74;100.00
20077;BME280;12348;42.710;23.378;2024-01-06T05:13:24;94834.72;;;2.77;100.00
20077;BME280;12348;42.710;23.378;2024-01-06T05:15:51;94820.22;;;2.67;100.00
20077;BME280;12348;42.710;23.378;2024-01-06T05:18:18;94804.84;;;2.70;100.00
20077;BME280;12348;42.710;23.378;2024-01-06T05:20:44;94812.84;;;2.70;100.00
20077;BME280;12348;42.710;23.378;2024-01-06T05:23:12;94814.75;;;2.74;100.00
20077;BME280;12348;42.710;23.378;2024-01-06T05:25:39;94819.13;;;2.63;100.00
20077;BME280;12348;42.710;23.378;2024-01-06T05:28:06;94808.81;;;2.67;100.00
20077;BME280;12348;42.710;23.378;2024-01-06T05:30:34;94802.44;;;2.68;100.00
20077;BME280;12348;42.710;23.378;2024-01-06T05:33:01;94819.88;;;2.81;100.00
20077;BME280;12348;42.710;23.378;2024-01-06T05:35:28;94797.44;;;2.99;100.00
20077;BME280;12348;42.710;23.378;2024-01-06T05:37:54;94807.03;;;2.73;100.00
20077;BME280;12348;42.710;23.378;2024-01-06T05:40:21;94804.16;;;2.57;100.00
20077;BME280;12348;42.710;23.378;2024-01-06T05:42:48;94806.81;;;2.57;100.00
20077;BME280;12348;42.710;23.378;2024-01-06T05:45:15;94806.91;;;2.62;100.00
20077;BME280;12348;42.710;23.378;2024-01-06T05:47:43;94808.44;;;2.80;100.00
20077;BME280;12348;42.710;23.378;2024-01-06T05:50:10;94802.97;;;2.92;100.00
20077;BME280;12348;42.710;23.378;2024-01-06T05:52:37;94808.34;;;2.97;100.00
20077;BME280;12348;42.710;23.378;2024-01-06T05:55:05;94809.03;;;3.36;100.00
20077;BME280;12348;42.710;23.378;2024-01-06T05:57:31;94806.00;;;3.28;100.00
20077;BME280;12348;42.710;23.378;2024-01-06T05:59:59;94805.94;;;3.23;100.00
20077;BME280;12348;42.710;23.378;2024-01-06T06:02:26;94810.97;;;3.19;100.00
20077;BME280;12348;42.710;23.378;2024-01-06T06:04:54;94804.75;;;3.08;100.00
20077;BME280;12348;42.710;23.378;2024-01-06T06:07:20;94815.56;;;3.02;100.00
20077;BME280;12348;42.710;23.378;2024-01-06T06:09:47;94800.72;;;3.06;100.00
20077;BME280;12348;42.710;23.378;2024-01-06T06:12:14;94805.44;;;3.26;100.00
20077;BME280;12348;42.710;23.378;2024-01-06T06:14:41;94799.47;;;3.13;100.00
20077;BME280;12348;42.710;23.378;2024-01-06T06:17:08;94803.22;;;2.90;100.00
20077;BME280;12348;42.710;23.378;2024-01-06T06:19:36;94793.34;;;2.86;100.00
20077;BME280;12348;42.710;23.378;2024-01-06T06:22:04;94796.66;;;2.76;100.00
20077;BME280;12348;42.710;23.378;2024-01-06T06:24:31;94779.63;;;2.72;100.00
20077;BME280;12348;42.710;23.378;2024-01-06T06:26:57;94799.53;;;2.70;100.00
20077;BME280;12348;42.710;23.378;2024-01-06T06:29:24;94807.50;;;2.70;100.00
20077;BME280;12348;42.710;23.378;2024-01-06T06:31:51;94793.59;;;3.11;100.00
20077;BME280;12348;42.710;23.378;2024-01-06T06:34:17;94797.31;;;3.37;100.00
20077;BME280;12348;42.710;23.378;2024-01-06T06:36:44;94798.13;;;3.38;100.00
20077;BME280;12348;42.710;23.378;2024-01-06T06:39:13;94811.16;;;3.39;100.00
20077;BME280;12348;42.710;23.378;2024-01-06T06:41:39;94813.16;;;3.54;100.00
20077;BME280;12348;42.710;23.378;2024-01-06T06:44:06;94802.63;;;3.70;100.00
20077;BME280;12348;42.710;23.378;2024-01-06T06:46:33;94803.00;;;3.83;100.00
20077;BME280;12348;42.710;23.378;2024-01-06T06:48:59;94793.81;;;4.01;100.00
20077;BME280;12348;42.710;23.378;2024-01-06T06:51:26;94804.50;;;4.06;100.00
20077;BME280;12348;42.710;23.378;2024-01-06T06:53:54;94807.22;;;4.11;100.00
20077;BME280;12348;42.710;23.378;2024-01-06T06:56:22;94804.06;;;4.20;100.00
20077;BME280;12348;42.710;23.378;2024-01-06T06:58:49;94803.00;;;4.21;100.00
20077;BME280;12348;42.710;23.378;2024-01-06T07:01:16;94802.88;;;4.48;100.00
20077;BME280;12348;42.710;23.378;2024-01-06T07:03:42;94798.44;;;4.64;100.00
20077;BME280;12348;42.710;23.378;2024-01-06T07:06:11;94804.63;;;4.74;100.00
20077;BME280;12348;42.710;23.378;2024-01-06T07:08:38;94800.09;;;4.80;100.00
20077;BME280;12348;42.710;23.378;2024-01-06T07:11:04;94797.69;;;4.89;100.00
20077;BME280;12348;42.710;23.378;2024-01-06T07:13:33;94787.59;;;4.85;100.00
20077;BME280;12348;42.710;23.378;2024-01-06T07:16:00;94791.75;;;4.66;100.00
20077;BME280;12348;42.710;23.378;2024-01-06T07:18:26;94795.16;;;4.51;100.00
20077;BME280;12348;42.710;23.378;2024-01-06T07:20:53;94799.53;;;4.78;100.00
20077;BME280;12348;42.710;23.378;2024-01-06T07:23:20;94796.72;;;5.10;100.00
20077;BME280;12348;42.710;23.378;2024-01-06T07:25:47;94797.84;;;5.34;100.00
20077;BME280;12348;42.710;23.378;2024-01-06T07:28:14;94800.81;;;5.84;100.00
20077;BME280;12348;42.710;23.378;2024-01-06T07:30:42;94796.00;;;6.12;100.00
20077;BME280;12348;42.710;23.378;2024-01-06T07:33:09;94801.31;;;6.32;100.00
20077;BME280;12348;42.710;23.378;2024-01-06T07:35:36;94805.50;;;6.64;100.00
20077;BME280;12348;42.710;23.378;2024-01-06T07:38:07;94804.13;;;6.71;100.00
20077;BME280;12348;42.710;23.378;2024-01-06T07:40:35;94802.25;;;6.72;100.00
20077;BME280;12348;42.710;23.378;2024-01-06T07:43:02;94800.44;;;6.57;100.00
20077;BME280;12348;42.710;23.378;2024-01-06T07:45:29;94781.25;;;6.29;100.00
20077;BME280;12348;42.710;23.378;2024-01-06T07:47:58;94799.75;;;6.00;100.00
20077;BME280;12348;42.710;23.378;2024-01-06T07:50:25;94807.75;;;5.80;100.00
20077;BME280;12348;42.710;23.378;2024-01-06T07:52:52;94795.19;;;5.55;100.00
20077;BME280;12348;42.710;23.378;2024-01-06T07:55:18;94799.72;;;5.59;100.00
20077;BME280;12348;42.710;23.378;2024-01-06T07:57:46;94797.84;;;5.60;100.00
20077;BME280;12348;42.710;23.378;2024-01-06T08:00:13;94808.81;;;5.58;100.00
20077;BME280;12348;42.710;23.378;2024-01-06T08:02:40;94797.88;;;6.01;100.00
20077;BME280;12348;42.710;23.378;2024-01-06T08:05:09;94801.22;;;6.73;100.00
20077;BME280;12348;42.710;23.378;2024-01-06T08:07:37;94796.28;;;7.00;100.00
20077;BME280;12348;42.710;23.378;2024-01-06T08:10:04;94810.63;;;7.25;100.00
20077;BME280;12348;42.710;23.378;2024-01-06T08:12:31;94808.84;;;7.00;100.00
20077;BME280;12348;42.710;23.378;2024-01-06T08:14:58;94809.44;;;6.92;100.00
20077;BME280;12348;42.710;23.378;2024-01-06T08:17:24;94812.28;;;6.36;100.00
20077;BME280;12348;42.710;23.378;2024-01-06T08:19:51;94795.94;;;6.37;100.00
20077;BME280;12348;42.710;23.378;2024-01-06T08:22:22;94807.47;;;6.22;100.00
20077;BME280;12348;42.710;23.378;2024-01-06T08:24:49;94810.91;;;6.38;100.00
20077;BME280;12348;42.710;23.378;2024-01-06T08:27:18;94786.22;;;6.77;100.00
20077;BME280;12348;42.710;23.378;2024-01-06T08:29:45;94793.13;;;6.88;100.00
20077;BME280;12348;42.710;23.378;2024-01-06T08:32:12;94785.97;;;7.23;100.00
20077;BME280;12348;42.710;23.378;2024-01-06T08:34:40;94812.47;;;7.69;100.00
20077;BME280;12348;42.710;23.378;2024-01-06T08:37:06;94793.88;;;7.48;100.00
20077;BME280;12348;42.710;23.378;2024-01-06T08:39:35;94785.69;;;8.03;100.00
20077;BME280;12348;42.710;23.378;2024-01-06T08:42:01;94785.47;;;7.94;100.00
20077;BME280;12348;42.710;23.378;2024-01-06T08:44:28;94784.06;;;8.60;100.00
20077;BME280;12348;42.710;23.378;2024-01-06T08:46:55;94799.44;;;8.20;100.00
20077;BME280;12348;42.710;23.378;2024-01-06T08:49:22;94790.94;;;9.33;100.00
20077;BME280;12348;42.710;23.378;2024-01-06T08:51:49;94785.94;;;9.83;98.08
20077;BME280;12348;42.710;23.378;2024-01-06T08:54:16;94781.91;;;10.32;89.87
20077;BME280;12348;42.710;23.378;2024-01-06T08:56:46;94798.63;;;10.89;83.40
20077;BME280;12348;42.710;23.378;2024-01-06T08:59:13;94778.16;;;10.14;84.51
20077;BME280;12348;42.710;23.378;2024-01-06T09:01:39;94770.69;;;9.22;89.41
20077;BME280;12348;42.710;23.378;2024-01-06T09:04:07;94776.00;;;8.84;91.83
20077;BME280;12348;42.710;23.378;2024-01-06T09:06:36;94775.50;;;8.82;93.36
20077;BME280;12348;42.710;23.378;2024-01-06T09:09:03;94756.06;;;9.66;90.56
20077;BME280;12348;42.710;23.378;2024-01-06T09:11:30;94758.56;;;9.43;88.73
20077;BME280;12348;42.710;23.378;2024-01-06T09:13:59;94751.84;;;9.79;90.49
20077;BME280;12348;42.710;23.378;2024-01-06T09:16:26;94756.09;;;11.14;82.75
20077;BME280;12348;42.710;23.378;2024-01-06T09:18:52;94741.13;;;10.94;80.78
20077;BME280;12348;42.710;23.378;2024-01-06T09:21:19;94750.31;;;11.79;76.27
20077;BME280;12348;42.710;23.378;2024-01-06T09:23:46;94746.97;;;11.37;76.38
20077;BME280;12348;42.710;23.378;2024-01-06T09:26:13;94736.47;;;10.31;83.73
20077;BME280;12348;42.710;23.378;2024-01-06T09:28:41;94739.16;;;10.31;82.54
20077;BME280;12348;42.710;23.378;2024-01-06T09:31:09;94742.59;;;9.85;84.20
20077;BME280;12348;42.710;23.378;2024-01-06T09:33:36;94725.09;;;9.87;83.60
20077;BME280;12348;42.710;23.378;2024-01-06T09:36:04;94726.03;;;9.78;86.10
20077;BME280;12348;42.710;23.378;2024-01-06T09:38:31;94709.41;;;10.22;83.68
20077;BME280;12348;42.710;23.378;2024-01-06T09:40:58;94724.28;;;9.87;83.99
20077;BME280;12348;42.710;23.378;2024-01-06T09:43:25;94707.19;;;9.64;86.76
20077;BME280;12348;42.710;23.378;2024-01-06T09:45:56;94705.38;;;9.92;85.99
20077;BME280;12348;42.710;23.378;2024-01-06T09:48:29;94708.31;;;9.77;87.07
20077;BME280;12348;42.710;23.378;2024-01-06T09:51:00;94704.84;;;9.06;92.11
20077;BME280;12348;42.710;23.378;2024-01-06T09:53:33;94702.78;;;8.79;89.61
20077;BME280;12348;42.710;23.378;2024-01-06T09:56:01;94685.50;;;8.85;91.15
20077;BME280;12348;42.710;23.378;2024-01-06T09:58:30;94693.78;;;8.88;91.77
20077;BME280;12348;42.710;23.378;2024-01-06T10:01:00;94703.69;;;8.50;93.27
20077;BME280;12348;42.710;23.378;2024-01-06T10:03:29;94679.44;;;8.79;92.05
20077;BME280;12348;42.710;23.378;2024-01-06T10:05:56;94668.47;;;8.94;91.23
20077;BME280;12348;42.710;23.378;2024-01-06T10:08:26;94668.84;;;9.07;90.80
20077;BME280;12348;42.710;23.378;2024-01-06T10:10:52;94672.16;;;8.61;92.98
20077;BME280;12348;42.710;23.378;2024-01-06T10:13:19;94668.56;;;8.46;93.32
20077;BME280;12348;42.710;23.378;2024-01-06T10:15:46;94658.44;;;8.81;92.64
20077;BME280;12348;42.710;23.378;2024-01-06T10:18:13;94659.84;;;8.79;92.77
20077;BME280;12348;42.710;23.378;2024-01-06T10:20:41;94650.69;;;8.61;92.61
20077;BME280;12348;42.710;23.378;2024-01-06T10:23:10;94648.69;;;8.47;93.48
20077;BME280;12348;42.710;23.378;2024-01-06T10:25:37;94652.25;;;8.19;95.04
20077;BME280;12348;42.710;23.378;2024-01-06T10:28:04;94649.22;;;8.49;94.92
20077;BME280;12348;42.710;23.378;2024-01-06T10:30:31;94629.78;;;8.58;95.20
20077;BME280;12348;42.710;23.378;2024-01-06T10:32:58;94613.13;;;8.61;93.11
20077;BME280;12348;42.710;23.378;2024-01-06T10:35:25;94643.00;;;8.73;93.89
20077;BME280;12348;42.710;23.378;2024-01-06T10:37:54;94626.41;;;8.90;92.27
20077;BME280;12348;42.710;23.378;2024-01-06T10:40:20;94630.59;;;8.58;93.42
20077;BME280;12348;42.710;23.378;2024-01-06T10:42:47;94623.84;;;8.61;92.58
20077;BME280;12348;42.710;23.378;2024-01-06T10:45:14;94603.38;;;8.46;93.29
20077;BME280;12348;42.710;23.378;2024-01-06T10:47:43;94622.97;;;8.22;94.65
20077;BME280;12348;42.710;23.378;2024-01-06T10:50:10;94610.06;;;8.24;94.92
20077;BME280;12348;42.710;23.378;2024-01-06T10:52:37;94618.03;;;8.54;93.50
20077;BME280;12348;42.710;23.378;2024-01-06T10:55:06;94604.50;;;8.64;92.86
20077;BME280;12348;42.710;23.378;2024-01-06T10:57:33;94585.50;;;8.60;93.66
20077;BME280;12348;42.710;23.378;2024-01-06T11:00:00;94594.91;;;8.58;94.28
20077;BME280;12348;42.710;23.378;2024-01-06T11:02:27;94582.22;;;8.44;95.53
20077;BME280;12348;42.710;23.378;2024-01-06T11:04:54;94591.47;;;8.33;96.87
20077;BME280;12348;42.710;23.378;2024-01-06T11:07:22;94569.16;;;8.38;97.31
20077;BME280;12348;42.710;23.378;2024-01-06T11:09:52;94581.22;;;8.35;98.44
20077;BME280;12348;42.710;23.378;2024-01-06T11:12:22;94568.72;;;8.49;98.28
20077;BME280;12348;42.710;23.378;2024-01-06T11:14:49;94571.31;;;8.55;98.75
20077;BME280;12348;42.710;23.378;2024-01-06T11:20:12;94570.03;;;8.52;96.78
20077;BME280;12348;42.710;23.378;2024-01-06T11:22:39;94559.22;;;8.57;97.72
20077;BME280;12348;42.710;23.378;2024-01-06T11:25:08;94563.66;;;8.67;97.00
20077;BME280;12348;42.710;23.378;2024-01-06T11:27:42;94564.78;;;8.80;95.95
20077;BME280;12348;42.710;23.378;2024-01-06T11:30:19;94527.06;;;8.90;96.22
20077;BME280;12348;42.710;23.378;2024-01-06T11:32:46;94554.91;;;8.94;94.70
20077;BME280;12348;42.710;23.378;2024-01-06T11:35:14;94545.13;;;9.17;94.35
20077;BME280;12348;42.710;23.378;2024-01-06T11:37:54;94532.94;;;9.38;92.11
20077;BME280;12348;42.710;23.378;2024-01-06T11:40:26;94548.38;;;9.74;90.18
20077;BME280;12348;42.710;23.378;2024-01-06T11:43:01;94512.06;;;9.90;89.73
20077;BME280;12348;42.710;23.378;2024-01-06T11:45:29;94505.19;;;9.98;88.47
20077;BME280;12348;42.710;23.378;2024-01-06T11:47:57;94517.84;;;9.56;90.94
20077;BME280;12348;42.710;23.378;2024-01-06T11:50:26;94507.19;;;9.65;90.45
20077;BME280;12348;42.710;23.378;2024-01-06T11:52:52;94488.06;;;9.66;91.22
20077;BME280;12348;42.710;23.378;2024-01-06T11:55:20;94494.75;;;9.69;92.54
20077;BME280;12348;42.710;23.378;2024-01-06T11:57:46;94476.72;;;9.83;91.90
20077;BME280;12348;42.710;23.378;2024-01-06T12:00:17;94481.72;;;9.49;92.72
20077;BME280;12348;42.710;23.378;2024-01-06T12:02:44;94473.34;;;9.64;93.69
20077;BME280;12348;42.710;23.378;2024-01-06T12:05:15;94474.50;;;9.85;91.90
20077;BME280;12348;42.710;23.378;2024-01-06T12:07:43;94467.72;;;10.02;92.03
20077;BME280;12348;42.710;23.378;2024-01-06T12:10:10;94473.28;;;10.05;92.65
20077;BME280;12348;42.710;23.378;2024-01-06T12:12:37;94463.91;;;10.03;91.95
20077;BME280;12348;42.710;23.378;2024-01-06T12:15:05;94443.25;;;10.26;92.00
20077;BME280;12348;42.710;23.378;2024-01-06T12:17:39;94431.25;;;9.95;92.94
20077;BME280;12348;42.710;23.378;2024-01-06T12:20:07;94417.09;;;10.04;93.05
20077;BME280;12348;42.710;23.378;2024-01-06T12:22:35;94426.41;;;9.84;94.87
20077;BME280;12348;42.710;23.378;2024-01-06T12:25:06;94426.59;;;9.87;95.92
20077;BME280;12348;42.710;23.378;2024-01-06T12:27:36;94430.69;;;10.21;95.83
20077;BME280;12348;42.710;23.378;2024-01-06T12:30:12;94443.09;;;10.44;95.41
20077;BME280;12348;42.710;23.378;2024-01-06T12:32:43;94435.91;;;10.54;94.16
20077;BME280;12348;42.710;23.378;2024-01-06T12:35:10;94453.25;;;10.48;93.33
20077;BME280;12348;42.710;23.378;2024-01-06T12:37:38;94455.09;;;10.38;93.77
20077;BME280;12348;42.710;23.378;2024-01-06T12:40:06;94448.94;;;10.24;94.42
20077;BME280;12348;42.710;23.378;2024-01-06T12:42:34;94432.09;;;10.18;95.38
20077;BME280;12348;42.710;23.378;2024-01-06T12:45:01;94432.09;;;10.32;95.35
20077;BME280;12348;42.710;23.378;2024-01-06T12:47:28;94418.75;;;10.27;94.99
20077;BME280;12348;42.710;23.378;2024-01-06T12:49:56;94428.81;;;10.22;96.26
20077;BME280;12348;42.710;23.378;2024-01-06T12:52:23;94425.91;;;10.77;95.56
20077;BME280;12348;42.710;23.378;2024-01-06T12:54:50;94440.47;;;11.38;91.03
20077;BME280;12348;42.710;23.378;2024-01-06T12:57:18;94413.84;;;12.28;86.80
20077;BME280;12348;42.710;23.378;2024-01-06T12:59:44;94414.81;;;12.58;84.11